Time;durP1;ratioP1;P1;durP2;ratioP2;P2;SDS_P1;SDS_P2;PMS_P1;PMS_P2;Temp;Humidity;BMP_temperature;BMP_pressure;BME280_temperature;BME280_humidity;BME280_pressure;Samples;Min_cycle;Max_cycle;Signal;HPM_P1;HPM_P2
2022/03/20 00:03:12;;;;;;;39.50;18.60;;;;;;;-0.50;45.33;101075.70;222521;1271;22672;-71
2022/03/20 00:08:18;;;;;;;35.00;16.70;;;;;;;-0.65;45.47;101081.35;222561;1271;25301;-71
2022/03/20 00:13:23;;;;;;;34.50;15.60;;;;;;;-0.75;45.62;101080.57;222251;1271;22728;-73
2022/03/20 00:18:26;;;;;;;29.10;14.80;;;;;;;-0.78;45.82;101077.05;222788;1270;25442;-71
2022/03/20 00:23:29;;;;;;;29.80;14.40;;;;;;;-0.81;46.05;101072.23;222655;1270;25576;-72
2022/03/20 00:28:31;;;;;;;30.50;14.60;;;;;;;-0.83;45.84;101065.05;222317;1270;22550;-71
2022/03/20 00:33:38;;;;;;;29.90;14.40;;;;;;;-0.82;46.09;101059.85;222751;1270;23845;-71
2022/03/20 00:38:43;;;;;;;26.90;14.50;;;;;;;-0.73;46.38;101054.04;222615;1269;22471;-71
2022/03/20 00:43:59;;;;;;;;;;;;;;;;;;;;;
2022/03/20 00:49:28;;;;;;;26.00;13.40;;;;;;;-0.65;46.48;101057.95;222547;1270;23306;-71
2022/03/20 00:54:31;;;;;;;31.20;14.90;;;;;;;-0.65;46.76;101051.66;222702;1268;22574;-71
2022/03/20 00:59:37;;;;;;;31.90;15.80;;;;;;;-0.70;46.86;101049.37;222648;1270;23302;-71
2022/03/20 01:04:39;;;;;;;30.00;16.30;;;;;;;-0.74;47.24;101054.36;222737;1270;24234;-71
2022/03/20 01:09:45;;;;;;;26.70;13.90;;;;;;;-0.83;47.16;101046.16;222659;1270;23696;-71
2022/03/20 01:14:47;;;;;;;33.00;16.50;;;;;;;-0.87;47.44;101045.09;222759;1270;22467;-71
2022/03/20 01:19:50;;;;;;;36.70;17.40;;;;;;;-0.89;47.52;101039.69;222678;1270;25378;-70
2022/03/20 01:24:53;;;;;;;35.60;18.20;;;;;;;-0.95;47.53;101039.29;222755;1270;22476;-70
2022/03/20 01:29:56;;;;;;;33.90;17.00;;;;;;;-1.05;47.64;101038.50;221280;1270;23679;-70
2022/03/20 01:35:06;;;;;;;28.70;15.10;;;;;;;-1.15;47.85;101038.84;222431;1270;22629;-71
2022/03/20 01:40:09;;;;;;;31.80;14.50;;;;;;;-1.17;48.09;101038.69;222555;1270;22481;-72
2022/03/20 01:45:33;;;;;;;30.70;15.90;;;;;;;-1.17;48.18;101036.97;222670;1269;22572;-71
2022/03/20 01:50:39;;;;;;;27.60;14.90;;;;;;;-1.24;48.07;101035.13;222702;1270;23410;-70
2022/03/20 01:55:45;;;;;;;28.70;15.50;;;;;;;-1.31;48.37;101030.58;222836;1270;22722;-72
2022/03/20 02:00:51;;;;;;;28.60;15.30;;;;;;;-1.36;48.46;101029.34;222637;1269;22638;-71
2022/03/20 02:05:55;;;;;;;27.70;13.60;;;;;;;-1.48;48.40;101025.97;222559;1270;22734;-72
2022/03/20 02:10:58;;;;;;;31.50;15.70;;;;;;;-1.57;48.46;101026.37;222188;1271;25355;-72
2022/03/20 02:16:04;;;;;;;29.50;15.50;;;;;;;-1.58;48.54;101025.93;222718;1270;23082;-72
2022/03/20 02:21:06;;;;;;;33.80;15.50;;;;;;;-1.62;48.76;101025.31;222533;1270;22558;-71
2022/03/20 02:26:12;;;;;;;30.50;14.80;;;;;;;-1.67;48.63;101021.36;222267;1273;22618;-72
2022/03/20 02:31:14;;;;;;;32.70;17.10;;;;;;;-1.69;48.87;101022.85;222647;1270;22564;-72
2022/03/20 02:36:17;;;;;;;31.50;16.70;;;;;;;-1.72;49.11;101024.70;222665;1269;22588;-74
2022/03/20 02:41:19;;;;;;;29.80;17.10;;;;;;;-1.83;48.90;101023.20;222751;1270;23042;-72
2022/03/20 02:46:23;;;;;;;28.20;14.90;;;;;;;-1.94;49.18;101027.05;222526;1270;22525;-73
2022/03/20 02:51:28;;;;;;;31.80;17.70;;;;;;;-2.02;49.73;101024.81;222244;1270;25481;-72
2022/03/20 02:56:41;;;;;;;28.50;16.30;;;;;;;-2.05;49.84;101030.95;222649;1270;22591;-72
2022/03/20 03:01:45;;;;;;;30.80;15.90;;;;;;;-2.02;50.17;101034.63;222631;1270;22580;-72
2022/03/20 03:06:48;;;;;;;22.90;14.20;;;;;;;-1.93;50.06;101036.02;222625;1270;25835;-71
2022/03/20 03:11:53;;;;;;;26.80;15.20;;;;;;;-1.85;49.92;101037.34;222389;1271;22561;-72
2022/03/20 03:16:56;;;;;;;28.70;14.80;;;;;;;-1.79;49.58;101041.14;222488;1271;22565;-71
2022/03/20 03:22:18;;;;;;;26.70;14.00;;;;;;;-1.78;49.72;101037.18;222409;1271;22897;-71
2022/03/20 03:27:21;;;;;;;27.10;15.20;;;;;;;-1.79;49.28;101040.15;222493;1271;22728;-71
2022/03/20 03:32:31;;;;;;;32.90;16.50;;;;;;;-1.79;49.07;101044.15;222446;1270;22642;-74
2022/03/20 03:38:00;;;;;;;28.90;15.10;;;;;;;-1.84;48.83;101049.23;222439;1271;22531;-71
2022/03/20 03:43:03;;;;;;;31.00;14.90;;;;;;;-1.90;48.80;101042.27;222683;1270;22829;-70
2022/03/20 03:48:06;;;;;;;26.70;13.90;;;;;;;-1.97;48.85;101044.66;222626;1270;22733;-71
2022/03/20 03:53:12;;;;;;;22.70;13.30;;;;;;;-2.02;48.83;101047.83;222775;1269;22540;-71
2022/03/20 03:58:15;;;;;;;27.20;14.20;;;;;;;-2.02;49.06;101047.05;222601;1270;22465;-71
2022/03/20 04:03:47;;;;;;;24.90;14.20;;;;;;;-2.01;48.98;101051.57;222651;1270;22574;-71
2022/03/20 04:09:04;;;;;;;27.10;15.10;;;;;;;-2.11;49.19;101047.41;222566;1271;25635;-70
2022/03/20 04:14:16;;;;;;;32.10;15.20;;;;;;;-2.12;49.21;101046.45;221471;1270;24320;-70
2022/03/20 04:19:34;;;;;;;27.40;13.50;;;;;;;-2.11;49.16;101045.61;221470;1270;25404;-71
2022/03/20 04:24:58;;;;;;;23.60;12.10;;;;;;;-2.17;49.17;101048.17;222440;1270;25396;-72
2022/03/20 04:30:07;;;;;;;24.30;13.90;;;;;;;-2.26;49.44;101055.64;222640;1270;22549;-70
2022/03/20 04:35:33;;;;;;;24.10;12.60;;;;;;;-2.32;49.74;101062.75;222775;1268;25357;-71
2022/03/20 04:40:40;;;;;;;28.70;14.90;;;;;;;-2.37;50.13;101065.10;222668;1271;25404;-71
2022/03/20 04:46:02;;;;;;;25.30;14.10;;;;;;;-2.43;50.40;101066.18;222508;1271;23641;-71
2022/03/20 05:02:39;;;;;;;28.60;14.60;;;;;;;-2.71;50.75;101071.83;222479;1271;24131;-72
2022/03/20 05:07:53;;;;;;;34.60;16.70;;;;;;;-2.75;51.05;101084.98;222194;1270;22576;-71
2022/03/20 05:13:21;;;;;;;30.80;15.30;;;;;;;-2.70;51.35;101089.64;222655;1269;22591;-70
2022/03/20 05:18:46;;;;;;;31.00;15.80;;;;;;;-2.60;51.37;101098.30;222490;1270;24994;-71
2022/03/20 05:23:48;;;;;;;30.00;15.40;;;;;;;-2.50;51.33;101104.52;222687;1270;22720;-71
2022/03/20 05:29:09;;;;;;;26.70;14.10;;;;;;;-2.43;51.45;101104.54;222593;1269;22608;-69
2022/03/20 05:34:26;;;;;;;28.10;14.60;;;;;;;-2.32;51.43;101113.34;222425;1270;24949;-71
2022/03/20 05:39:33;;;;;;;28.60;16.30;;;;;;;-2.20;51.34;101118.86;222614;1270;22772;-70
2022/03/20 05:44:38;;;;;;;29.90;15.60;;;;;;;-2.07;51.25;101117.05;221047;1270;22654;-69
2022/03/20 05:49:43;;;;;;;25.60;14.70;;;;;;;-1.87;51.24;101122.39;222833;1269;22560;-71
2022/03/20 05:54:55;;;;;;;29.90;15.90;;;;;;;-1.72;50.97;101122.77;222291;1273;25598;-72
2022/03/20 06:00:00;;;;;;;31.40;16.60;;;;;;;-1.58;50.88;101123.70;222667;1268;25430;-71
2022/03/20 06:05:03;;;;;;;31.50;16.70;;;;;;;-1.45;50.73;101127.89;222547;1270;22511;-71
2022/03/20 06:10:09;;;;;;;31.40;16.20;;;;;;;-1.32;50.65;101129.79;222625;1270;22540;-71
2022/03/20 06:15:15;;;;;;;32.60;16.60;;;;;;;-1.18;50.63;101135.58;222740;1270;22668;-70
2022/03/20 06:20:17;;;;;;;26.60;15.50;;;;;;;-1.02;50.22;101143.45;223183;1269;23839;-70
2022/03/20 06:25:20;;;;;;;28.80;16.40;;;;;;;-0.84;49.83;101143.96;222479;1270;22535;-71
2022/03/20 06:30:22;;;;;;;28.80;16.60;;;;;;;-0.70;49.55;101144.50;222466;1270;22574;-71
2022/03/20 06:35:25;;;;;;;29.10;16.90;;;;;;;-0.58;49.29;101151.80;222523;1270;23729;-71
2022/03/20 06:40:30;;;;;;;29.70;17.10;;;;;;;-0.46;49.22;101154.14;221212;1270;24253;-72
2022/03/20 06:45:32;;;;;;;30.50;17.10;;;;;;;-0.31;48.97;101164.26;222637;1270;23304;-72
2022/03/20 06:50:35;;;;;;;33.70;17.60;;;;;;;-0.13;48.99;101173.21;222537;1270;22468;-71
2022/03/20 06:55:39;;;;;;;31.10;16.30;;;;;;;0.08;48.67;101177.36;222597;1270;24344;-71
2022/03/20 07:00:41;;;;;;;31.10;18.00;;;;;;;0.30;48.59;101179.90;222530;1270;22471;-72
2022/03/20 07:05:44;;;;;;;33.60;18.30;;;;;;;0.53;48.28;101184.45;222520;1270;23794;-71
2022/03/20 07:10:59;;;;;;;35.10;18.30;;;;;;;0.72;47.95;101186.33;222845;1270;24314;-71
2022/03/20 07:16:19;;;;;;;29.00;16.80;;;;;;;0.96;47.88;101188.95;222697;1270;22673;-72
2022/03/20 07:21:23;;;;;;;36.60;19.90;;;;;;;1.20;47.39;101192.31;222719;1270;23097;-72
2022/03/20 07:32:04;;;;;;;28.90;17.60;;;;;;;1.67;46.78;101202.20;222548;1270;22613;-72
2022/03/20 07:37:16;;;;;;;26.50;16.70;;;;;;;1.96;46.10;101202.12;222725;1270;22523;-72
2022/03/20 07:42:26;;;;;;;31.90;18.80;;;;;;;2.21;46.00;101202.98;222935;1270;23668;-72
2022/03/20 07:47:38;;;;;;;30.10;18.60;;;;;;;2.38;45.51;101206.53;222816;1268;22700;-74
2022/03/20 07:53:01;;;;;;;29.10;18.30;;;;;;;2.63;45.31;101212.16;222886;1270;25372;-71
2022/03/20 07:58:29;;;;;;;29.80;17.90;;;;;;;2.86;44.95;101215.09;222755;1270;24256;-72
2022/03/20 08:04:02;;;;;;;33.20;19.00;;;;;;;3.07;44.55;101212.95;222916;1269;23763;-73
2022/03/20 08:09:27;;;;;;;30.10;19.60;;;;;;;3.34;44.15;101221.31;222836;1270;25860;-72
2022/03/20 08:14:41;;;;;;;31.10;19.20;;;;;;;3.52;43.91;101219.59;222846;1270;22632;-70
2022/03/20 08:20:02;;;;;;;29.10;17.10;;;;;;;3.72;43.75;101221.14;222623;1271;22662;-71
2022/03/20 08:25:16;;;;;;;28.80;17.90;;;;;;;3.98;43.18;101229.13;222541;1271;22904;-71
2022/03/20 08:30:21;;;;;;;25.70;16.50;;;;;;;4.13;42.54;101226.85;222653;1270;24230;-71
2022/03/20 08:35:23;;;;;;;31.10;19.00;;;;;;;4.27;42.58;101221.06;222679;1270;23848;-71
2022/03/20 08:40:32;;;;;;;25.30;17.60;;;;;;;4.47;42.05;101222.38;222750;1270;23187;-71
2022/03/20 08:45:47;;;;;;;25.30;16.10;;;;;;;4.70;42.01;101213.15;222666;1271;23677;-72
2022/03/20 08:50:53;;;;;;;29.30;17.00;;;;;;;4.97;41.81;101213.73;222644;1271;22574;-73
2022/03/20 08:56:12;;;;;;;27.30;17.70;;;;;;;5.25;41.42;101215.83;222593;1271;23256;-71
2022/03/20 09:01:14;;;;;;;25.30;15.80;;;;;;;5.45;41.15;101209.79;222574;1271;24251;-69
2022/03/20 09:06:21;;;;;;;26.80;17.10;;;;;;;5.66;40.76;101205.79;222591;1271;22638;-71
2022/03/20 09:11:43;;;;;;;;;;;;;;;;;;;;;
2022/03/20 09:22:26;;;;;;;22.20;14.10;;;;;;;6.34;39.43;101193.21;222313;1270;25373;-72
2022/03/20 09:27:29;;;;;;;22.40;14.70;;;;;;;6.53;38.73;101190.80;222518;1270;22542;-72
2022/03/20 09:32:32;;;;;;;21.50;14.20;;;;;;;6.79;38.76;101190.23;222637;1271;25301;-73
2022/03/20 09:37:35;;;;;;;23.70;14.90;;;;;;;6.95;37.74;101194.36;222727;1270;22601;-73
2022/03/20 09:42:41;;;;;;;20.90;13.60;;;;;;;6.94;37.60;101197.57;222639;1270;22602;-72
2022/03/20 09:47:45;;;;;;;19.80;14.10;;;;;;;7.13;37.72;101192.76;222862;1270;22584;-73
2022/03/20 09:52:47;;;;;;;21.80;13.30;;;;;;;7.39;37.17;101190.37;222504;1270;22487;-72
2022/03/20 09:58:02;;;;;;;20.40;13.90;;;;;;;7.60;37.35;101187.58;222677;1270;22613;-72
2022/03/20 10:03:24;;;;;;;28.00;17.60;;;;;;;7.88;37.45;101184.86;222729;1271;25220;-71
2022/03/20 10:08:40;;;;;;;21.10;13.20;;;;;;;8.11;36.95;101184.46;222647;1271;22609;-69
2022/03/20 10:14:31;;;;;;;22.50;14.30;;;;;;;8.22;35.38;101181.74;221154;1270;22565;-72
2022/03/20 10:19:37;;;;;;;19.50;12.40;;;;;;;8.35;35.95;101182.21;222587;1270;23803;-72
2022/03/20 10:24:49;;;;;;;16.60;11.80;;;;;;;8.60;35.44;101180.73;222771;1270;22480;-72
2022/03/20 10:30:01;;;;;;;17.40;10.80;;;;;;;8.84;34.95;101176.20;222444;1271;22497;-71
2022/03/20 10:35:09;;;;;;;16.50;11.00;;;;;;;8.94;34.08;101175.42;222558;1270;22568;-73
2022/03/20 10:40:18;;;;;;;17.80;12.10;;;;;;;9.02;33.84;101177.53;222512;1269;22489;-73
2022/03/20 10:45:30;;;;;;;16.50;11.40;;;;;;;9.12;33.94;101170.83;222508;1270;23819;-73
2022/03/20 10:50:53;;;;;;;13.70;10.20;;;;;;;9.34;33.95;101168.30;222512;1271;25353;-71
2022/03/20 10:56:28;;;;;;;16.10;11.10;;;;;;;9.45;32.49;101160.75;222542;1270;23024;-71
2022/03/20 11:01:47;;;;;;;16.40;10.70;;;;;;;9.38;31.93;101156.80;222596;1271;22567;-71
2022/03/20 11:07:00;;;;;;;15.00;11.00;;;;;;;9.37;32.35;101158.56;222542;1268;22590;-72
2022/03/20 11:12:09;;;;;;;15.70;11.60;;;;;;;9.50;32.36;101149.73;222866;1268;24171;-72
2022/03/20 11:17:41;;;;;;;15.20;9.90;;;;;;;9.71;32.45;101145.69;223147;1268;24256;-71
2022/03/20 11:22:59;;;;;;;14.80;10.00;;;;;;;9.95;32.09;101135.63;222754;1270;22824;-71
2022/03/20 11:28:27;;;;;;;16.00;9.90;;;;;;;10.07;32.01;101128.33;222736;1270;22586;-72
2022/03/20 11:33:36;;;;;;;18.10;11.90;;;;;;;10.20;31.99;101123.48;222785;1269;22531;-72
2022/03/20 11:38:44;;;;;;;15.50;9.80;;;;;;;10.29;31.57;101123.79;222647;1270;22656;-72
2022/03/20 11:44:11;;;;;;;15.50;10.30;;;;;;;10.31;31.51;101113.20;222763;1270;22571;-72
2022/03/20 11:49:17;;;;;;;13.40;9.90;;;;;;;10.39;31.52;101105.52;222701;1269;25845;-71
2022/03/20 11:54:32;;;;;;;13.50;9.60;;;;;;;10.50;31.15;101093.61;222566;1270;22492;-71
2022/03/20 11:59:49;;;;;;;13.90;9.60;;;;;;;10.52;30.86;101089.16;222765;1269;22485;-72
2022/03/20 12:05:25;;;;;;;13.20;9.40;;;;;;;10.54;30.68;101081.42;222766;1268;25167;-71
2022/03/20 12:10:57;;;;;;;17.40;11.50;;;;;;;10.58;30.65;101073.77;223044;1268;23268;-72
2022/03/20 12:15:59;;;;;;;15.30;9.80;;;;;;;10.59;30.04;101069.30;222496;1270;22473;-71
2022/03/20 12:21:21;;;;;;;;;;;;;;;;;;;;;
2022/03/20 12:26:41;;;;;;;10.30;8.40;;;;;;;10.68;29.95;101057.09;222579;1271;22642;-72
2022/03/20 12:32:12;;;;;;;12.20;8.30;;;;;;;10.67;29.55;101054.94;222749;1269;25203;-71
2022/03/20 12:37:35;;;;;;;10.70;8.30;;;;;;;10.62;29.53;101048.49;222562;1269;23280;-71
2022/03/20 12:43:07;;;;;;;12.70;8.30;;;;;;;10.67;29.76;101049.42;222678;1270;25402;-72
2022/03/20 12:48:22;;;;;;;17.50;12.20;;;;;;;10.81;29.45;101042.73;222632;1269;24785;-71
2022/03/20 12:54:03;;;;;;;;;;;;;;;;;;;;;
2022/03/20 12:59:32;;;;;;;9.60;6.90;;;;;;;10.97;29.00;101038.01;222654;1269;25399;-71
2022/03/20 13:04:37;;;;;;;8.50;6.10;;;;;;;10.97;28.51;101033.81;222630;1270;22642;-71
2022/03/20 13:09:39;;;;;;;9.50;6.10;;;;;;;10.85;28.42;101025.09;222763;1270;22894;-72
2022/03/20 13:14:49;;;;;;;8.30;5.90;;;;;;;10.84;28.49;101026.35;222694;1270;25252;-71
2022/03/20 13:20:27;;;;;;;6.90;5.10;;;;;;;10.76;28.00;101022.07;222723;1270;25205;-73
2022/03/20 13:25:44;;;;;;;9.40;6.20;;;;;;;10.81;27.76;101021.77;222428;1270;25394;-70
2022/03/20 13:30:48;;;;;;;8.60;6.20;;;;;;;10.86;27.97;101019.81;222598;1268;25794;-71
2022/03/20 13:35:53;;;;;;;12.90;8.80;;;;;;;10.97;27.92;101012.42;222598;1270;22997;-70
2022/03/20 13:41:05;;;;;;;6.90;4.60;;;;;;;11.06;27.33;101008.89;222841;1270;25418;-71
2022/03/20 13:46:23;;;;;;;7.50;5.30;;;;;;;11.12;27.34;101004.05;222610;1270;22830;-72
2022/03/20 13:51:56;;;;;;;6.30;4.70;;;;;;;11.19;27.09;100996.83;222482;1270;22705;-72
2022/03/20 13:57:13;;;;;;;6.70;4.90;;;;;;;11.23;27.11;100991.66;222794;1270;22476;-72
2022/03/20 14:02:16;;;;;;;7.10;5.10;;;;;;;11.25;26.31;100991.54;222494;1271;22669;-71
2022/03/20 14:07:33;;;;;;;7.10;5.40;;;;;;;11.27;26.91;100989.37;222754;1270;23857;-71
2022/03/20 14:12:38;;;;;;;8.30;6.10;;;;;;;11.28;27.00;100985.85;222733;1270;22479;-72
2022/03/20 14:17:50;;;;;;;8.50;5.20;;;;;;;11.26;26.87;100984.98;222566;1270;22697;-71
2022/03/20 14:23:04;;;;;;;;;;;;;;;;;;;;;
2022/03/20 14:28:23;;;;;;;10.00;7.10;;;;;;;11.20;26.67;100977.58;222657;1268;22592;-71
2022/03/20 14:44:18;;;;;;;12.60;7.20;;;;;;;11.03;26.17;100965.62;222743;1270;22542;-71
2022/03/20 14:49:25;;;;;;;9.70;7.00;;;;;;;10.82;26.52;100958.10;222830;1270;24225;-71
2022/03/20 14:54:30;;;;;;;10.00;6.70;;;;;;;10.73;27.08;100952.83;223031;1269;22483;-71
2022/03/20 14:59:33;;;;;;;10.40;7.40;;;;;;;10.69;27.32;100949.83;222835;1269;22536;-72
2022/03/20 15:04:37;;;;;;;10.90;7.60;;;;;;;10.62;27.25;100949.22;222630;1269;23857;-71
2022/03/20 15:15:22;;;;;;;12.10;7.60;;;;;;;10.40;27.75;100946.77;222399;1271;24968;-72
2022/03/20 15:20:24;;;;;;;11.40;7.70;;;;;;;10.35;27.86;100943.35;222513;1270;22567;-71
2022/03/20 15:25:27;;;;;;;12.10;8.80;;;;;;;10.29;27.74;100941.65;222738;1271;22724;-71
2022/03/20 15:30:31;;;;;;;12.90;8.10;;;;;;;10.23;27.67;100940.08;222697;1270;22562;-72
2022/03/20 15:35:34;;;;;;;10.70;7.50;;;;;;;10.17;27.58;100938.86;222584;1270;23036;-72
2022/03/20 15:40:42;;;;;;;10.00;7.10;;;;;;;10.05;27.81;100933.21;222599;1269;22570;-71
2022/03/20 15:45:44;;;;;;;11.10;7.90;;;;;;;9.92;28.09;100931.36;222695;1270;22645;-72
2022/03/20 15:50:48;;;;;;;10.30;7.60;;;;;;;9.79;28.56;100931.90;222697;1267;22621;-73
2022/03/20 15:55:50;;;;;;;9.70;7.30;;;;;;;9.62;28.88;100930.58;222648;1270;22610;-73
2022/03/20 16:00:52;;;;;;;11.00;8.10;;;;;;;9.45;28.95;100929.41;222183;1271;25427;-72
2022/03/20 16:05:55;;;;;;;11.30;7.20;;;;;;;9.28;29.36;100927.73;222705;1270;22599;-71
2022/03/20 16:10:59;;;;;;;13.60;8.80;;;;;;;9.09;29.61;100927.53;222789;1270;22720;-74
2022/03/20 16:16:03;;;;;;;12.20;8.30;;;;;;;8.92;29.45;100922.69;222442;1270;23039;-72
2022/03/20 16:21:05;;;;;;;14.60;9.00;;;;;;;8.81;29.52;100920.14;222621;1270;24348;-72
2022/03/20 16:31:37;;;;;;;16.80;9.90;;;;;;;8.58;29.62;100915.52;222592;1270;23091;-72
2022/03/20 16:36:40;;;;;;;13.90;9.40;;;;;;;8.41;29.80;100909.30;222793;1270;23346;-72
2022/03/20 16:41:55;;;;;;;18.70;11.20;;;;;;;8.24;30.05;100906.46;222838;1270;23695;-71
2022/03/20 16:47:18;;;;;;;17.30;10.40;;;;;;;8.01;30.07;100912.59;222288;1271;22743;-72
2022/03/20 16:52:20;;;;;;;16.90;10.60;;;;;;;7.76;30.49;100908.42;222266;1270;22540;-72
2022/03/20 16:57:23;;;;;;;17.70;10.20;;;;;;;7.50;31.15;100907.39;222459;1269;24141;-72
2022/03/20 17:02:32;;;;;;;18.80;10.60;;;;;;;7.22;31.60;100904.42;222624;1270;23457;-73
2022/03/20 17:07:34;;;;;;;21.10;11.50;;;;;;;6.90;32.19;100901.19;222625;1270;22488;-71
2022/03/20 17:12:38;;;;;;;17.20;11.00;;;;;;;6.58;32.52;100905.16;222554;1270;23104;-72
2022/03/20 17:17:40;;;;;;;19.10;11.70;;;;;;;6.27;32.75;100906.45;222676;1270;24834;-73
2022/03/20 17:22:44;;;;;;;17.70;11.20;;;;;;;6.00;33.37;100911.13;222760;1268;22478;-71
2022/03/20 17:27:46;;;;;;;15.80;9.10;;;;;;;5.73;33.82;100921.55;223081;1268;22478;-72
2022/03/20 17:32:52;;;;;;;16.50;10.70;;;;;;;5.48;34.09;100924.29;222790;1269;22568;-72
2022/03/20 17:37:57;;;;;;;19.60;11.70;;;;;;;5.30;34.51;100928.10;222342;1269;24184;-72
2022/03/20 17:43:02;;;;;;;20.40;12.00;;;;;;;5.12;35.01;100930.25;222602;1269;23251;-73
2022/03/20 17:48:08;;;;;;;20.30;12.00;;;;;;;4.95;35.17;100929.98;222468;1270;22545;-71
2022/03/20 17:53:17;;;;;;;19.90;11.60;;;;;;;4.75;35.14;100932.17;222585;1269;23715;-72
2022/03/20 17:58:19;;;;;;;20.50;11.60;;;;;;;4.60;35.31;100932.67;222648;1270;22598;-72
2022/03/20 18:08:43;;;;;;;18.40;10.50;;;;;;;4.48;35.06;100925.69;222544;1270;22827;-72
2022/03/20 18:13:53;;;;;;;20.60;10.00;;;;;;;4.40;34.91;100929.12;222500;1269;22687;-72
2022/03/20 18:18:56;;;;;;;17.80;10.20;;;;;;;4.31;35.09;100934.41;222675;1270;24150;-72
2022/03/20 18:23:58;;;;;;;16.30;9.20;;;;;;;4.23;34.88;100934.88;222666;1268;23914;-72
2022/03/20 18:29:01;;;;;;;15.90;9.00;;;;;;;4.13;35.02;100943.49;222644;1270;23735;-73
2022/03/20 18:34:06;;;;;;;19.20;10.30;;;;;;;4.03;35.05;100944.64;222463;1269;22587;-72
2022/03/20 18:39:09;;;;;;;19.10;9.50;;;;;;;3.96;35.10;100946.14;222539;1270;23194;-71
2022/03/20 18:44:11;;;;;;;17.60;9.20;;;;;;;3.96;35.13;100943.20;222561;1268;22469;-72
2022/03/20 18:49:14;;;;;;;17.30;9.90;;;;;;;4.03;35.11;100946.06;222532;1269;24167;-72
2022/03/20 18:54:19;;;;;;;21.80;10.60;;;;;;;3.99;35.03;100950.04;222662;1270;22587;-72
2022/03/20 18:59:21;;;;;;;19.20;10.20;;;;;;;3.89;35.01;100949.58;222527;1270;22551;-72
2022/03/20 19:04:25;;;;;;;19.40;10.50;;;;;;;3.80;35.17;100949.38;222606;1269;23319;-72
2022/03/20 19:09:28;;;;;;;23.10;10.80;;;;;;;3.78;35.51;100950.99;222718;1268;23015;-71
2022/03/20 19:14:31;;;;;;;22.60;11.30;;;;;;;3.73;35.57;100950.27;222724;1270;22554;-73
2022/03/20 19:19:33;;;;;;;21.70;10.30;;;;;;;3.69;35.66;100954.38;222589;1269;22565;-73
2022/03/20 19:24:36;;;;;;;24.50;11.50;;;;;;;3.62;35.69;100958.30;222203;1269;656345;-71
2022/03/20 19:29:41;;;;;;;23.90;10.90;;;;;;;3.53;36.10;100960.66;222925;1270;23044;-73
2022/03/20 19:40:06;;;;;;;25.40;11.30;;;;;;;3.27;36.41;100959.73;222668;1270;23111;-72
2022/03/20 19:45:13;;;;;;;23.30;12.10;;;;;;;3.12;36.76;100955.65;222684;1268;22548;-72
2022/03/20 19:50:29;;;;;;;23.80;12.00;;;;;;;2.98;37.03;100956.68;222570;1270;23305;-73
2022/03/20 19:55:39;;;;;;;23.20;10.40;;;;;;;2.87;37.40;100963.80;222555;1270;22797;-71
2022/03/20 20:00:44;;;;;;;26.00;11.10;;;;;;;2.70;37.48;100962.14;222768;1268;25894;-71
2022/03/20 20:05:46;;;;;;;26.50;12.40;;;;;;;2.56;37.77;100959.48;222497;1270;23722;-72
2022/03/20 20:10:49;;;;;;;26.90;13.00;;;;;;;2.43;37.85;100959.48;222978;1269;22697;-72
2022/03/20 20:15:52;;;;;;;29.10;13.00;;;;;;;2.31;38.01;100958.38;222567;1270;25170;-71
2022/03/20 20:20:54;;;;;;;28.70;13.00;;;;;;;2.21;38.15;100949.65;222667;1270;22554;-71
2022/03/20 20:25:56;;;;;;;27.20;13.00;;;;;;;2.15;38.35;100949.70;222542;1270;24740;-72
2022/03/20 20:30:59;;;;;;;27.70;12.00;;;;;;;2.18;38.42;100947.87;222410;1270;22546;-72
2022/03/20 20:36:31;;;;;;;24.90;11.50;;;;;;;2.17;38.18;100948.20;222511;1270;24484;-71
2022/03/20 20:41:36;;;;;;;23.90;11.30;;;;;;;2.11;38.48;100946.30;222477;1270;24236;-72
2022/03/20 20:46:39;;;;;;;24.50;12.70;;;;;;;2.05;38.34;100948.89;222542;1270;22583;-71
2022/03/20 20:51:45;;;;;;;26.70;12.20;;;;;;;2.00;38.39;100953.29;222547;1270;22659;-72
2022/03/20 20:56:48;;;;;;;27.30;12.50;;;;;;;1.92;38.56;100952.36;222505;1270;24688;-72
2022/03/20 21:01:51;;;;;;;24.80;12.10;;;;;;;1.86;39.09;100948.95;222626;1270;22823;-71
2022/03/20 21:12:24;;;;;;;26.80;13.90;;;;;;;1.82;39.14;100942.36;222560;1269;22579;-69
2022/03/20 21:17:28;;;;;;;26.80;12.90;;;;;;;1.78;39.42;100942.14;222473;1270;22540;-71
2022/03/20 21:22:31;;;;;;;31.10;13.70;;;;;;;1.72;39.72;100939.27;222480;1270;22600;-71
2022/03/20 21:27:33;;;;;;;25.60;12.60;;;;;;;1.61;39.72;100941.10;222623;1270;25229;-72
2022/03/20 21:32:40;;;;;;;25.60;13.40;;;;;;;1.50;39.82;100937.66;222547;1270;22934;-72
2022/03/20 21:37:44;;;;;;;25.70;13.30;;;;;;;1.40;39.85;100939.52;222586;1269;22576;-71
2022/03/20 21:42:47;;;;;;;24.40;12.50;;;;;;;1.27;40.02;100939.95;223004;1269;22706;-73
2022/03/20 21:47:49;;;;;;;27.30;13.70;;;;;;;1.14;40.44;100936.73;222772;1270;25204;-72
2022/03/20 21:53:04;;;;;;;27.00;13.00;;;;;;;1.00;40.32;100934.67;222616;1270;22583;-72
2022/03/20 21:58:27;;;;;;;25.40;13.00;;;;;;;0.93;40.56;100935.99;222379;1270;22983;-71
2022/03/20 22:03:29;;;;;;;26.20;13.20;;;;;;;0.91;40.84;100933.83;222333;1270;22616;-72
2022/03/20 22:08:32;;;;;;;26.60;13.00;;;;;;;0.87;40.95;100934.39;222471;1270;25922;-72
2022/03/20 22:13:37;;;;;;;26.00;13.10;;;;;;;0.88;41.02;100933.45;222329;1271;23178;-72
2022/03/20 22:18:39;;;;;;;26.90;12.90;;;;;;;0.86;41.24;100937.51;222433;1270;22564;-72
2022/03/20 22:23:46;;;;;;;25.20;13.30;;;;;;;0.87;41.48;100933.54;222609;1270;22673;-72
2022/03/20 22:28:50;;;;;;;25.50;13.30;;;;;;;0.87;41.48;100938.26;222654;1270;22548;-71
2022/03/20 22:33:53;;;;;;;28.20;13.70;;;;;;;0.85;41.69;100937.81;222089;1273;25215;-72
2022/03/20 22:38:58;;;;;;;27.40;12.90;;;;;;;0.80;42.26;100936.54;222214;1270;22546;-72
2022/03/20 22:44:05;;;;;;;29.60;13.80;;;;;;;0.77;42.54;100937.80;222547;1270;22482;-72
2022/03/20 22:54:28;;;;;;;29.20;14.80;;;;;;;0.67;42.79;100938.02;222549;1270;22797;-70
2022/03/20 22:59:30;;;;;;;34.80;16.60;;;;;;;0.68;42.84;100942.12;222369;1270;22666;-70
2022/03/20 23:04:32;;;;;;;32.20;15.60;;;;;;;0.69;43.53;100940.40;222763;1270;22571;-71
2022/03/20 23:09:35;;;;;;;28.00;14.10;;;;;;;0.67;43.52;100940.05;222407;1270;22678;-71
2022/03/20 23:14:41;;;;;;;28.90;14.90;;;;;;;0.59;44.07;100941.32;222588;1270;22935;-71
2022/03/20 23:19:44;;;;;;;27.60;13.30;;;;;;;0.50;44.44;100941.25;222524;1270;23300;-71
2022/03/20 23:25:03;;;;;;;26.40;13.70;;;;;;;0.37;44.47;100941.41;222535;1270;23495;-71
2022/03/20 23:30:09;;;;;;;25.00;13.10;;;;;;;0.23;44.70;100939.09;222661;1269;22862;-71
2022/03/20 23:35:12;;;;;;;28.90;13.30;;;;;;;0.19;44.64;100946.05;222623;1270;22570;-71
2022/03/20 23:40:15;;;;;;;27.70;14.00;;;;;;;0.13;44.53;100950.84;222685;1270;24074;-71
2022/03/20 23:45:19;;;;;;;27.90;14.10;;;;;;;0.08;44.81;100949.71;222536;1270;25238;-71
2022/03/20 23:50:21;;;;;;;28.80;13.90;;;;;;;-0.03;45.07;100954.00;222487;1270;22573;-72
2022/03/20 23:55:27;;;;;;;28.20;14.20;;;;;;;-0.20;45.02;100958.09;222661;1270;25255;-71
